首页
METAR-TAF:

METAR-TAF

机场 :

库尔卢 / 马纳利, 印度

纬度: 31-52-36N, 经度: 77-09-16E, 海拔: 1089米

METAR: 丢失

时间: 02:25 (20:55 UTC)

预报

该预报发布于15小时和55分钟前的05:00 UTC
预报有效从07日的 06点(UTC)到 07日的 15点(UTC)
风速节,风向
能見度: 6000
散云层高于10000英尺
成为
从 07日的 09点(UTC)到 07日的 11点(UTC)
风速6节,风向西转西南
能見度: 5000
散云层高于2000英尺
多云层高于9000英尺
霾, 小雨

TAF: VIBR 070500Z 0706/0715 00000KT 6000 SCT100 BECMG 0709/0711 24006KT 5000 HZ -RA SCT020 BKN090

超过4000个机场的气象观测和天气预报(METAR&TAF报告)。

可查询的气象台以黄色和红色小点在地图上表示。

将鼠标移到小点上方,可查看气象台名称。

然后点击查看天气观测和预报。

如需切换地图:点击带黑十字的绿色按钮放大地图;点击带横线的绿色按钮缩小地图;或者点击绿色箭头查看邻近地区的地图。


METAR-TAF: